Terminal Aerodrome Forecast
Issued by NWS Memphis, TN

Home | Current Version | Previous Version | Text Only | Print | Product List | Glossary On
Versions: 1 2 3 4 5 6 7 8 9 10 11 12 13 14
670
FTUS44 KMEG 241730
TAFMKL
TAF
KMKL 241730Z 2418/2518 19009KT P6SM SCT250
     FM250000 20007KT P6SM BKN250
     FM250900 22006KT P6SM VCSH BKN080 OVC150
     FM251500 01008KT P6SM BKN150=

USA.gov is the U.S. government's official web portal to all federal, state and local government web resources and services.